Ana Sayfa
METAR-TAF:

METAR-TAF

Havaalanları :

Gillespie County Airport

Fredericksburg, Teksas, Amerika Birleşik Devletleri

Enlem: 30-14-37N, Boylam: 098-54-34W, yükseklik: 517 m

Güncel hava durumu gözlemi

Rapor saat 12:55 UTC de 27 dakika önce yapıldı.
Sakin rüzgar
Sıcaklık 5°C
Nem 87%
Basınç 1016 hPa
Görüş mesafesi: 16.1 km
Açık gökyüzü

METAR: KT82 131255Z AUTO 00000KT 10SM CLR 05/03 A2999 RMK AO2 T00510025

Saat: 07:22 (13:22 UTC)


TAF: eksik

4.000'den fazla havaalanı için hava durumu gözlemleri ve tahminleri (METAR ve TAF raporları).

Kullanılabilir istasyonlar harita üzerinde sarı ve kırmızı noktalarla gösterilir.

İstasyonun adını görmek için fareyi noktanın üzerinde gezdirin.

Sonrasında hava gözlem ve tahminlerini görmek için tıklayın.

Haritayı değiştirmek için: yaklaştırmak için siyah artı işaretli yeşil düğmeye ve uzaklaştırmak için de eksi işaretli düğmeye hızla tıklayın; bitişik haritalar için yeşil okları kullanın.


METAR-TAF: